createdAt,value
2023-03-23T15:57:53.520Z,14.77
2023-03-23T16:00:24.267Z,14.76
2023-03-23T16:02:56.843Z,14.68
2023-03-23T16:05:25.825Z,14.47
2023-03-23T16:07:55.780Z,14.72
2023-03-23T16:10:24.793Z,14.53
2023-03-23T16:12:53.513Z,14.66
2023-03-23T16:15:22.247Z,14.57
2023-03-23T16:17:50.619Z,14.46
2023-03-23T16:20:20.878Z,14.50
2023-03-23T16:22:50.900Z,14.49
2023-03-23T16:25:21.250Z,14.50
2023-03-23T16:27:52.305Z,14.47
2023-03-23T16:30:23.496Z,14.41
2023-03-23T16:32:54.174Z,14.38
2023-03-23T16:35:23.903Z,14.38
2023-03-23T16:38:08.112Z,14.32
2023-03-23T16:40:38.790Z,14.30
2023-03-23T16:43:08.581Z,14.26
2023-03-23T16:45:38.399Z,14.22
2023-03-23T16:48:07.886Z,14.30
2023-03-23T16:50:37.274Z,14.16
2023-03-23T16:53:06.687Z,14.14
2023-03-23T16:55:37.615Z,14.13
2023-03-23T16:58:17.129Z,14.14
2023-03-23T17:00:50.622Z,14.10
2023-03-23T17:03:20.049Z,14.13
2023-03-23T17:05:49.432Z,14.01
2023-03-23T17:08:18.445Z,14.01
2023-03-23T17:10:46.627Z,13.94
2023-03-23T17:13:17.376Z,13.94
2023-03-23T17:15:47.370Z,13.96
2023-03-23T17:18:16.272Z,13.86
2023-03-23T17:20:45.127Z,13.80
2023-03-23T17:23:13.959Z,13.76
2023-03-23T17:25:42.932Z,13.71
2023-03-23T17:28:11.461Z,13.74
2023-03-23T17:30:44.995Z,13.72
2023-03-23T17:33:14.320Z,13.71
2023-03-23T17:35:44.563Z,13.66
2023-03-23T17:38:13.951Z,13.64
2023-03-23T17:40:42.383Z,13.64
2023-03-23T17:43:10.626Z,13.55
2023-03-23T17:45:38.964Z,13.52
2023-03-23T17:48:09.322Z,13.44
2023-03-23T17:50:37.671Z,13.43
2023-03-23T17:53:06.256Z,13.41
2023-03-23T17:55:34.383Z,13.42
2023-03-23T17:58:02.630Z,13.49
2023-03-23T18:00:31.531Z,13.43
2023-03-23T18:02:59.850Z,13.42
2023-03-23T18:05:31.871Z,13.38
2023-03-23T18:08:00.960Z,13.33
2023-03-23T18:10:29.137Z,13.35
2023-03-23T18:12:58.832Z,13.28
2023-03-23T18:15:29.746Z,13.20
2023-03-23T18:17:58.402Z,13.19
2023-03-23T18:20:27.896Z,13.18
2023-03-23T18:22:58.201Z,13.11
2023-03-23T18:25:27.298Z,13.09
2023-03-23T18:27:56.156Z,13.05
2023-03-23T18:30:33.451Z,12.99
2023-03-23T18:33:02.253Z,12.99
2023-03-23T18:35:30.864Z,12.96
2023-03-23T18:38:00.618Z,12.94
2023-03-23T18:40:28.982Z,12.91
2023-03-23T18:42:57.072Z,12.91
2023-03-23T18:45:25.431Z,12.92
2023-03-23T18:47:54.486Z,12.93
2023-03-23T18:50:23.036Z,12.90
2023-03-23T18:52:51.306Z,12.87
2023-03-23T18:55:22.190Z,12.84
2023-03-23T18:57:51.244Z,12.81
2023-03-23T19:00:21.710Z,12.80
2023-03-23T19:02:51.997Z,12.82
2023-03-23T19:05:20.949Z,12.78
2023-03-23T19:07:49.390Z,12.75
2023-03-23T19:10:18.063Z,12.72
2023-03-23T19:12:48.960Z,12.71
2023-03-23T19:15:18.548Z,12.69
2023-03-23T19:17:47.508Z,12.66
2023-03-23T19:20:23.692Z,12.64
2023-03-23T19:23:05.099Z,12.62
2023-03-23T19:25:33.312Z,12.59
2023-03-23T19:30:34.688Z,12.51
2023-03-23T19:33:03.173Z,12.44
2023-03-23T19:35:32.406Z,12.43
2023-03-23T19:38:01.028Z,12.44
2023-03-23T19:40:40.291Z,12.40
2023-03-23T19:43:11.754Z,12.38
2023-03-23T19:45:41.873Z,12.39
2023-03-23T19:48:10.373Z,12.40
2023-03-23T19:50:40.700Z,12.38
2023-03-23T19:53:10.012Z,12.37
2023-03-23T19:55:38.800Z,12.36
2023-03-23T19:58:06.892Z,12.36
2023-03-23T20:00:38.133Z,12.33
2023-03-23T20:03:08.902Z,12.31
2023-03-23T20:05:37.813Z,12.28
2023-03-23T20:08:07.070Z,12.23
2023-03-23T20:10:35.719Z,12.17
2023-03-23T20:13:05.352Z,12.10
2023-03-23T20:15:34.372Z,12.00
2023-03-23T20:18:06.011Z,11.89
2023-03-23T20:20:36.592Z,11.80
2023-03-23T20:23:07.798Z,11.79
2023-03-23T20:25:36.961Z,11.77
2023-03-23T20:28:06.542Z,11.75
2023-03-23T20:30:35.670Z,11.83
2023-03-23T20:33:05.423Z,11.94
2023-03-23T20:35:33.512Z,12.01
2023-03-23T20:38:02.294Z,12.11
2023-03-23T20:40:30.443Z,12.18
2023-03-23T20:42:58.693Z,12.19
2023-03-23T20:45:27.238Z,12.32
2023-03-23T20:47:55.508Z,12.31
2023-03-23T20:50:25.295Z,12.43
2023-03-23T20:52:54.527Z,12.45
2023-03-23T20:55:22.727Z,12.50
2023-03-23T20:57:51.164Z,12.60
2023-03-23T21:00:19.649Z,12.67
2023-03-23T21:02:49.693Z,12.72
2023-03-23T21:05:18.145Z,12.75
2023-03-23T21:07:50.971Z,12.76
2023-03-23T21:10:19.111Z,12.75
2023-03-23T21:12:48.776Z,12.77
2023-03-23T21:15:17.293Z,12.81
2023-03-23T21:17:46.714Z,12.81
2023-03-23T21:20:15.278Z,12.87
2023-03-23T21:22:43.938Z,12.88
2023-03-23T21:25:13.661Z,12.99
2023-03-23T21:27:41.635Z,13.06
2023-03-23T21:30:12.109Z,13.07
2023-03-23T21:32:40.435Z,13.09
2023-03-23T21:35:09.155Z,13.09
2023-03-23T21:37:39.010Z,13.09
2023-03-23T21:40:13.178Z,13.13
2023-03-23T21:42:43.800Z,13.18
2023-03-23T21:45:20.984Z,13.19
2023-03-23T21:47:49.820Z,13.15
2023-03-23T21:50:18.145Z,13.16
2023-03-23T21:52:51.217Z,13.24
2023-03-23T21:55:19.791Z,13.32
2023-03-23T21:57:50.080Z,13.29
2023-03-23T22:00:18.915Z,13.23
2023-03-23T22:02:47.385Z,13.18
2023-03-23T22:05:16.029Z,13.21
2023-03-23T22:07:46.299Z,13.20
2023-03-23T22:10:15.830Z,13.17
2023-03-23T22:12:44.554Z,13.19
2023-03-23T22:15:15.670Z,13.19
2023-03-23T22:17:44.737Z,13.09
2023-03-23T22:20:15.864Z,13.05
2023-03-23T22:22:44.238Z,13.02
2023-03-23T22:25:13.377Z,13.04
2023-03-23T22:27:42.788Z,13.00
2023-03-23T22:30:16.123Z,12.96
2023-03-23T22:32:45.033Z,12.89
2023-03-23T22:35:14.189Z,12.88
2023-03-23T22:37:42.598Z,12.83
2023-03-23T22:40:12.230Z,12.83
2023-03-23T22:42:40.608Z,12.85
2023-03-23T22:45:10.374Z,12.83
2023-03-23T22:47:41.553Z,12.90
2023-03-23T22:50:11.364Z,12.91
2023-03-23T22:52:39.754Z,12.89
2023-03-23T22:55:13.214Z,12.89
2023-03-23T22:57:41.437Z,12.88
2023-03-23T23:00:14.904Z,12.82
2023-03-23T23:02:45.413Z,12.78
2023-03-23T23:05:16.190Z,12.72
2023-03-23T23:07:44.882Z,12.67
2023-03-23T23:10:13.246Z,12.64
2023-03-23T23:12:42.445Z,12.60
2023-03-23T23:15:14.681Z,12.66
2023-03-23T23:17:48.374Z,12.67
2023-03-23T23:20:18.772Z,12.65
2023-03-23T23:22:47.346Z,12.68
2023-03-23T23:25:15.696Z,12.72
2023-03-23T23:27:45.324Z,12.70
2023-03-23T23:30:15.150Z,12.66
2023-03-23T23:32:44.608Z,12.71
2023-03-23T23:35:15.058Z,12.65
2023-03-23T23:37:43.465Z,12.60
2023-03-23T23:40:14.888Z,12.57
2023-03-23T23:42:44.173Z,12.63
2023-03-23T23:45:13.278Z,12.61
2023-03-23T23:47:41.731Z,12.72
2023-03-23T23:50:14.502Z,12.70
2023-03-23T23:52:45.664Z,12.63
2023-03-23T23:55:16.889Z,12.57
2023-03-23T23:57:46.472Z,12.52
